Time;durP1;ratioP1;P1;durP2;ratioP2;P2;SDS_P1;SDS_P2;PMS_P1;PMS_P2;Temp;Humidity;BMP_temperature;BMP_pressure;BME280_temperature;BME280_humidity;BME280_pressure;Samples;Min_cycle;Max_cycle;Signal;HPM_P1;HPM_P2
2021/05/31 00:00:46;;;;;;;12.43;9.90;;;11.10;99.90;;;;;;5048190;28;20170;-75
2021/05/31 00:03:11;;;;;;;15.00;10.17;;;10.90;99.90;;;;;;5048130;28;20231;-75
2021/05/31 00:05:37;;;;;;;12.90;9.27;;;10.70;99.90;;;;;;5043508;28;20260;-75
2021/05/31 00:08:03;;;;;;;10.20;9.10;;;10.70;99.90;;;;;;5050732;28;20574;-75
2021/05/31 00:10:29;;;;;;;11.90;9.03;;;10.70;99.90;;;;;;5049385;28;20247;-75
2021/05/31 00:12:55;;;;;;;10.97;9.70;;;10.60;99.90;;;;;;5045874;28;20184;-75
2021/05/31 00:15:21;;;;;;;13.90;9.30;;;10.60;99.90;;;;;;5048328;28;20595;-75
2021/05/31 00:17:48;;;;;;;9.53;8.63;;;10.60;99.90;;;;;;5052382;28;20505;-75
2021/05/31 00:20:15;;;;;;;14.37;8.70;;;10.60;99.90;;;;;;5049690;28;20523;-75
2021/05/31 00:22:41;;;;;;;9.23;8.07;;;10.60;99.90;;;;;;5049717;28;20434;-75
2021/05/31 00:25:08;;;;;;;10.07;8.10;;;10.60;99.90;;;;;;5049588;28;20880;-75
2021/05/31 00:27:36;;;;;;;10.40;8.97;;;10.60;99.90;;;;;;5049591;28;20482;-75
2021/05/31 00:30:03;;;;;;;10.87;7.87;;;10.70;99.90;;;;;;5052014;28;20497;-75
2021/05/31 00:32:28;;;;;;;10.40;8.70;;;10.70;99.90;;;;;;5048192;28;20442;-75
2021/05/31 00:34:54;;;;;;;9.90;8.10;;;10.80;99.90;;;;;;5047251;28;20832;-75
2021/05/31 00:37:19;;;;;;;10.50;8.10;;;10.80;99.90;;;;;;5045035;28;20614;-75
2021/05/31 00:39:45;;;;;;;9.00;7.77;;;10.80;99.90;;;;;;5047092;28;20623;-76
2021/05/31 00:42:11;;;;;;;12.93;8.70;;;10.70;99.90;;;;;;5051325;28;20238;-75
2021/05/31 00:44:36;;;;;;;9.30;8.40;;;10.80;99.90;;;;;;5051719;28;20615;-75
2021/05/31 00:47:04;;;;;;;8.70;7.80;;;10.80;99.90;;;;;;5046874;28;20732;-75
2021/05/31 00:49:35;;;;;;;9.60;8.07;;;10.70;99.90;;;;;;5047579;28;20676;-75
2021/05/31 00:52:03;;;;;;;9.60;7.47;;;10.70;99.90;;;;;;5040208;28;20427;-76
2021/05/31 00:54:29;;;;;;;11.43;7.47;;;10.70;99.90;;;;;;5045877;28;21229;-75
2021/05/31 00:56:55;;;;;;;13.20;9.70;;;10.70;99.90;;;;;;5041680;28;20459;-75
2021/05/31 00:59:21;;;;;;;8.57;7.70;;;10.70;99.90;;;;;;5045270;28;20213;-75
2021/05/31 01:01:48;;;;;;;9.90;8.33;;;10.60;99.90;;;;;;5042012;28;20455;-75
2021/05/31 01:04:14;;;;;;;9.93;7.93;;;10.60;99.90;;;;;;5049850;28;20256;-75
2021/05/31 01:06:53;;;;;;;10.10;7.77;;;10.60;99.90;;;;;;5051664;28;20420;-75
2021/05/31 01:09:32;;;;;;;8.83;7.07;;;10.60;99.90;;;;;;5040332;28;20169;-75
2021/05/31 01:12:33;;;;;;;12.67;7.77;;;10.60;99.90;;;;;;5047614;28;20473;-75
2021/05/31 01:15:04;;;;;;;13.13;8.27;;;10.60;99.90;;;;;;5044926;28;20436;-75
2021/05/31 01:17:46;;;;;;;7.70;6.90;;;10.60;99.90;;;;;;5047365;28;20832;-75
2021/05/31 01:20:47;;;;;;;8.93;7.13;;;10.50;99.90;;;;;;5045433;28;20427;-75
2021/05/31 01:23:16;;;;;;;9.23;7.67;;;10.50;99.90;;;;;;5021593;28;20947;-75
2021/05/31 01:25:55;;;;;;;8.30;6.97;;;10.50;99.90;;;;;;5047772;28;20426;-75
2021/05/31 01:28:46;;;;;;;8.63;6.57;;;10.60;99.90;;;;;;5051376;28;20788;-75
2021/05/31 01:31:20;;;;;;;8.20;7.37;;;10.40;99.90;;;;;;5043803;28;20431;-75
2021/05/31 01:33:48;;;;;;;7.33;6.60;;;10.30;99.90;;;;;;5051040;28;20441;-76
2021/05/31 01:36:14;;;;;;;7.43;6.60;;;10.20;99.90;;;;;;5065202;28;20445;-75
2021/05/31 01:38:41;;;;;;;10.53;7.17;;;10.10;99.90;;;;;;5046168;28;20897;-75
2021/05/31 01:41:09;;;;;;;9.20;7.30;;;10.00;99.90;;;;;;5046056;28;20437;-75
2021/05/31 01:43:38;;;;;;;8.87;7.77;;;10.00;99.90;;;;;;5049042;28;20842;-75
2021/05/31 01:46:05;;;;;;;10.10;7.60;;;9.90;99.90;;;;;;5048363;28;20857;-75
2021/05/31 01:48:31;;;;;;;10.93;8.57;;;9.80;99.90;;;;;;5044830;28;20443;-75
2021/05/31 01:50:59;;;;;;;10.20;7.50;;;9.80;99.90;;;;;;5046542;28;20443;-75
2021/05/31 01:53:26;;;;;;;9.10;8.20;;;9.80;99.90;;;;;;5050002;28;20427;-75
2021/05/31 01:55:53;;;;;;;8.80;7.60;;;9.70;99.90;;;;;;5046038;28;20769;-75
2021/05/31 01:58:19;;;;;;;11.87;7.57;;;9.70;99.90;;;;;;5050631;28;20458;-75
2021/05/31 02:00:45;;;;;;;8.50;7.17;;;9.60;99.90;;;;;;5044618;28;20848;-75
2021/05/31 02:03:11;;;;;;;8.33;6.77;;;9.60;99.90;;;;;;5048758;28;20507;-75
2021/05/31 02:05:37;;;;;;;9.10;7.40;;;9.50;99.90;;;;;;5043586;28;20929;-75
2021/05/31 02:08:03;;;;;;;9.97;8.90;;;9.40;99.90;;;;;;5043381;28;20221;-75
2021/05/31 02:10:29;;;;;;;8.33;7.30;;;9.40;99.90;;;;;;5050757;28;20953;-75
2021/05/31 02:12:58;;;;;;;11.40;8.37;;;9.30;99.90;;;;;;5044100;28;20431;-75
2021/05/31 02:15:29;;;;;;;8.80;7.00;;;9.30;99.90;;;;;;5043436;28;20200;-75
2021/05/31 02:18:23;;;;;;;8.40;7.50;;;9.20;99.90;;;;;;5057109;28;20467;-75
2021/05/31 02:20:54;;;;;;;10.00;7.53;;;9.20;99.90;;;;;;5050010;28;20449;-75
2021/05/31 02:23:20;;;;;;;10.40;7.60;;;9.10;99.90;;;;;;5050273;28;20424;-75
2021/05/31 02:25:49;;;;;;;11.50;7.93;;;9.10;99.90;;;;;;5048279;28;20427;-75
2021/05/31 02:28:15;;;;;;;11.70;7.97;;;9.10;99.90;;;;;;5052255;28;20454;-75
2021/05/31 02:30:41;;;;;;;8.70;7.10;;;9.00;99.90;;;;;;5048497;28;20914;-75
2021/05/31 02:33:07;;;;;;;9.00;6.60;;;9.00;99.90;;;;;;5049989;28;20442;-75
2021/05/31 02:35:35;;;;;;;11.70;7.40;;;8.90;99.90;;;;;;5043765;28;20773;-75
2021/05/31 02:38:02;;;;;;;7.80;6.53;;;8.90;99.90;;;;;;5046819;28;20662;-75
2021/05/31 02:40:28;;;;;;;8.23;7.40;;;8.80;99.90;;;;;;5048624;28;20428;-75
2021/05/31 02:42:57;;;;;;;10.33;7.50;;;8.80;99.90;;;;;;5048723;28;20519;-75
2021/05/31 02:45:25;;;;;;;14.50;7.07;;;8.70;99.90;;;;;;5048683;28;20468;-75
2021/05/31 02:47:55;;;;;;;7.30;6.60;;;8.70;99.90;;;;;;5048945;28;20432;-75
2021/05/31 02:50:21;;;;;;;8.53;7.47;;;8.60;99.90;;;;;;5041847;28;20439;-75
2021/05/31 02:52:47;;;;;;;9.90;8.37;;;8.60;99.90;;;;;;5050034;28;20430;-75
2021/05/31 02:55:16;;;;;;;9.97;8.27;;;8.50;99.90;;;;;;5048953;28;20427;-75
2021/05/31 02:57:42;;;;;;;9.57;7.33;;;8.50;99.90;;;;;;5046787;28;20484;-75
2021/05/31 03:00:15;;;;;;;11.50;9.10;;;8.40;99.90;;;;;;5049033;28;20834;-75
2021/05/31 03:02:41;;;;;;;9.47;8.17;;;8.50;99.90;;;;;;5043746;28;20428;-75
2021/05/31 03:05:11;;;;;;;9.50;6.70;;;8.50;99.90;;;;;;5049465;28;20481;-75
2021/05/31 03:07:37;;;;;;;11.07;7.70;;;8.40;99.90;;;;;;5050134;28;20230;-75
2021/05/31 03:10:04;;;;;;;8.73;7.40;;;8.40;99.90;;;;;;5047231;28;20447;-75
2021/05/31 03:12:30;;;;;;;11.30;8.27;;;8.40;99.90;;;;;;5043790;28;20186;-75
2021/05/31 03:14:55;;;;;;;10.20;7.53;;;8.30;99.90;;;;;;5048753;28;20427;-75
2021/05/31 03:17:21;;;;;;;8.20;7.40;;;8.30;99.90;;;;;;5045422;28;21006;-75
2021/05/31 03:19:48;;;;;;;7.17;6.50;;;8.20;99.90;;;;;;5048445;28;20169;-75
2021/05/31 03:22:14;;;;;;;8.50;7.47;;;8.20;99.90;;;;;;5047634;28;20177;-75
2021/05/31 03:24:40;;;;;;;10.43;7.70;;;8.20;99.90;;;;;;5049215;28;20480;-75
2021/05/31 03:27:06;;;;;;;16.00;8.70;;;8.20;99.90;;;;;;5044226;28;20511;-75
2021/05/31 03:29:32;;;;;;;12.60;9.10;;;8.10;99.90;;;;;;5043815;28;20257;-75
2021/05/31 03:31:58;;;;;;;14.53;10.27;;;8.10;99.90;;;;;;5046015;28;20439;-75
2021/05/31 03:34:23;;;;;;;15.43;10.93;;;8.10;99.90;;;;;;5047341;28;20614;-75
2021/05/31 03:36:49;;;;;;;15.30;10.10;;;8.10;99.90;;;;;;5044756;28;20460;-75
2021/05/31 03:39:15;;;;;;;11.90;9.30;;;8.10;99.90;;;;;;5049484;28;20181;-75
2021/05/31 03:41:41;;;;;;;14.27;9.63;;;8.10;99.90;;;;;;5046859;28;20201;-75
2021/05/31 03:44:07;;;;;;;13.97;9.20;;;8.10;99.90;;;;;;5050911;28;20473;-75
2021/05/31 03:46:32;;;;;;;10.30;9.07;;;8.10;99.90;;;;;;5045744;28;20193;-75
2021/05/31 03:48:58;;;;;;;11.57;8.93;;;8.10;99.90;;;;;;5048049;28;20193;-75
2021/05/31 03:51:24;;;;;;;15.17;8.80;;;8.10;99.90;;;;;;5047332;28;20331;-75
2021/05/31 03:53:50;;;;;;;10.30;8.20;;;8.10;99.90;;;;;;5049312;28;20500;-75
2021/05/31 03:56:16;;;;;;;11.10;7.70;;;8.10;99.90;;;;;;5050357;28;20496;-75
2021/05/31 03:58:43;;;;;;;10.20;7.80;;;8.10;99.90;;;;;;5047234;28;20932;-75
2021/05/31 04:01:11;;;;;;;9.40;8.10;;;8.10;99.90;;;;;;5044352;28;20921;-75
2021/05/31 04:03:37;;;;;;;11.60;8.40;;;8.10;99.90;;;;;;5043338;28;20435;-75
2021/05/31 04:14:00;;;;;;;10.00;7.37;;;8.20;99.90;;;;;;5052411;28;20489;-75
2021/05/31 04:16:26;;;;;;;9.47;7.03;;;8.30;99.90;;;;;;5051866;28;20474;-75
2021/05/31 04:18:51;;;;;;;14.30;7.23;;;8.30;99.90;;;;;;5052946;28;20463;-75
2021/05/31 04:21:17;;;;;;;10.57;7.60;;;8.30;99.90;;;;;;5044673;28;20173;-75
2021/05/31 04:23:43;;;;;;;10.97;7.43;;;8.40;99.90;;;;;;5053416;28;20188;-75
2021/05/31 04:26:08;;;;;;;10.80;7.90;;;8.40;99.90;;;;;;5049509;28;20569;-75
2021/05/31 04:28:34;;;;;;;8.23;7.10;;;8.50;99.90;;;;;;5049852;28;20188;-75
2021/05/31 04:31:00;;;;;;;9.80;7.70;;;8.50;99.90;;;;;;5047101;28;20181;-75
2021/05/31 04:33:25;;;;;;;11.40;7.50;;;8.60;99.90;;;;;;5052918;28;20520;-75
2021/05/31 04:35:51;;;;;;;8.40;7.50;;;8.60;99.90;;;;;;5049217;28;20705;-75
2021/05/31 04:38:17;;;;;;;10.83;7.90;;;8.60;99.90;;;;;;5045741;28;20291;-75
2021/05/31 04:40:42;;;;;;;10.70;8.47;;;8.70;99.90;;;;;;5049057;28;20248;-75
2021/05/31 04:43:08;;;;;;;8.13;7.20;;;8.80;99.90;;;;;;5051824;28;20207;-76
2021/05/31 04:45:34;;;;;;;12.20;7.73;;;8.80;99.90;;;;;;5050585;28;20259;-76
2021/05/31 04:47:59;;;;;;;12.17;8.17;;;8.90;99.90;;;;;;5041489;28;20684;-75
2021/05/31 04:50:26;;;;;;;10.13;8.10;;;8.90;99.90;;;;;;5047285;28;20564;-75
2021/05/31 04:52:51;;;;;;;13.97;8.90;;;9.00;99.90;;;;;;5045681;28;20674;-75
2021/05/31 04:55:18;;;;;;;9.00;7.50;;;9.10;99.90;;;;;;5046141;28;20554;-75
2021/05/31 04:57:45;;;;;;;13.17;8.50;;;9.20;99.90;;;;;;5049977;28;20216;-75
2021/05/31 05:00:12;;;;;;;8.80;6.97;;;9.20;99.90;;;;;;5051552;28;20519;-75
2021/05/31 05:02:38;;;;;;;9.73;6.80;;;9.30;99.90;;;;;;5047593;28;20523;-76
2021/05/31 05:05:04;;;;;;;10.33;8.10;;;9.40;99.90;;;;;;5048121;28;20542;-75
2021/05/31 05:07:29;;;;;;;11.53;9.00;;;9.50;99.90;;;;;;5039712;28;20574;-75
2021/05/31 05:09:55;;;;;;;9.73;7.73;;;9.50;99.90;;;;;;5045459;28;20467;-75
2021/05/31 05:12:21;;;;;;;11.20;7.40;;;9.60;99.90;;;;;;5048988;28;20208;-76
2021/05/31 05:14:47;;;;;;;9.93;7.87;;;9.70;99.90;;;;;;5048345;28;20229;-76
2021/05/31 05:17:13;;;;;;;9.13;6.23;;;9.80;99.90;;;;;;5045965;28;20502;-75
2021/05/31 05:19:38;;;;;;;10.40;7.37;;;9.90;99.90;;;;;;5051167;28;20599;-75
2021/05/31 05:22:04;;;;;;;7.37;6.27;;;10.00;99.90;;;;;;5047061;28;20264;-76
2021/05/31 05:24:30;;;;;;;9.47;7.27;;;10.10;99.90;;;;;;5050818;28;20268;-76
2021/05/31 05:26:55;;;;;;;8.30;6.60;;;10.10;99.90;;;;;;5048083;28;20198;-75
2021/05/31 05:29:21;;;;;;;8.20;6.50;;;10.20;99.90;;;;;;5043869;28;20276;-75
2021/05/31 05:31:47;;;;;;;7.33;5.93;;;10.30;99.90;;;;;;5042125;28;20209;-75
2021/05/31 05:34:13;;;;;;;6.50;5.80;;;10.30;99.90;;;;;;5044188;28;20212;-75
2021/05/31 05:37:00;;;;;;;6.87;6.27;;;10.40;99.90;;;;;;5044906;28;20467;-76
2021/05/31 05:47:41;;;;;;;8.20;5.67;;;10.70;99.90;;;;;;5041479;28;20475;-75
2021/05/31 05:49:49;;;;;;;9.87;7.57;;;10.70;99.90;;;;;;5049032;28;20443;-75
2021/05/31 05:52:15;;;;;;;7.97;6.07;;;10.80;99.90;;;;;;5046872;28;20783;-75
2021/05/31 05:54:41;;;;;;;7.10;5.93;;;10.90;99.90;;;;;;5043380;28;20205;-75
2021/05/31 05:57:07;;;;;;;9.17;6.47;;;10.90;99.90;;;;;;5045132;28;20273;-76
2021/05/31 05:59:34;;;;;;;8.37;6.47;;;11.00;99.90;;;;;;5045027;28;20425;-75
2021/05/31 06:02:00;;;;;;;6.37;5.77;;;11.10;99.90;;;;;;5039961;28;20438;-76
2021/05/31 06:04:26;;;;;;;6.97;4.90;;;11.30;99.90;;;;;;5035629;28;20452;-75
2021/05/31 06:06:52;;;;;;;6.80;6.10;;;11.30;99.90;;;;;;5041865;28;20511;-76
2021/05/31 06:09:18;;;;;;;5.60;4.67;;;11.30;99.90;;;;;;5046147;28;20197;-76
2021/05/31 06:11:44;;;;;;;7.10;5.27;;;11.40;99.90;;;;;;5048689;28;20549;-76
2021/05/31 06:14:10;;;;;;;8.37;5.90;;;11.40;99.90;;;;;;5049138;28;20443;-76
2021/05/31 06:16:39;;;;;;;4.63;4.33;;;11.50;99.90;;;;;;5047073;28;20458;-76
2021/05/31 06:19:04;;;;;;;3.87;3.57;;;11.50;99.90;;;;;;5051696;28;20470;-76
2021/05/31 06:21:30;;;;;;;6.10;4.90;;;11.50;99.90;;;;;;5043353;28;20431;-75
2021/05/31 06:23:56;;;;;;;6.97;4.50;;;11.60;99.90;;;;;;5038622;28;20518;-75
2021/05/31 06:26:22;;;;;;;4.37;3.83;;;11.70;99.90;;;;;;5042815;28;20496;-75
2021/05/31 06:28:48;;;;;;;4.07;3.70;;;11.70;99.90;;;;;;5036902;28;20231;-75
2021/05/31 06:31:14;;;;;;;4.80;4.27;;;11.70;99.90;;;;;;5036544;28;20439;-75
2021/05/31 06:33:40;;;;;;;4.30;3.90;;;11.70;99.90;;;;;;5043313;28;20177;-75
2021/05/31 06:36:10;;;;;;;4.77;4.37;;;11.90;99.90;;;;;;5036159;28;20439;-75
2021/05/31 06:38:36;;;;;;;3.43;3.13;;;12.10;99.90;;;;;;5042021;28;20255;-75
2021/05/31 06:41:03;;;;;;;4.17;3.60;;;12.20;99.90;;;;;;5034871;28;20433;-75
2021/05/31 06:43:29;;;;;;;4.03;3.73;;;12.20;99.90;;;;;;5043388;28;20518;-75
2021/05/31 06:45:58;;;;;;;4.77;3.57;;;12.30;99.90;;;;;;5040608;28;20447;-75
2021/05/31 06:48:23;;;;;;;3.67;3.30;;;12.40;99.90;;;;;;5043413;28;20452;-75
2021/05/31 06:50:49;;;;;;;3.73;3.53;;;12.60;99.90;;;;;;5044021;28;20455;-75
2021/05/31 06:53:16;;;;;;;6.13;3.27;;;12.70;99.90;;;;;;5044632;28;20602;-75
2021/05/31 06:55:43;;;;;;;5.43;3.03;;;12.80;99.90;;;;;;5037387;28;20242;-75
2021/05/31 06:58:09;;;;;;;3.37;2.60;;;12.90;99.90;;;;;;5041453;28;20463;-75
2021/05/31 07:00:35;;;;;;;3.20;2.80;;;13.00;99.90;;;;;;5041351;28;20442;-75
2021/05/31 07:03:01;;;;;;;2.80;2.60;;;13.00;99.90;;;;;;5043609;28;20184;-75
2021/05/31 07:05:26;;;;;;;3.40;2.50;;;13.30;99.90;;;;;;5045230;28;20441;-75
2021/05/31 07:07:52;;;;;;;3.10;2.90;;;13.50;99.90;;;;;;5044684;28;20185;-75
2021/05/31 07:10:23;;;;;;;4.70;3.23;;;13.60;99.90;;;;;;5044287;28;20275;-76
2021/05/31 07:12:49;;;;;;;3.13;2.40;;;13.60;99.90;;;;;;5043362;28;20443;-75
2021/05/31 07:15:14;;;;;;;2.10;2.00;;;13.70;99.90;;;;;;5045126;28;20439;-75
2021/05/31 07:17:40;;;;;;;3.07;2.40;;;13.70;99.90;;;;;;5044880;28;20290;-75
2021/05/31 07:20:10;;;;;;;2.43;2.30;;;13.80;99.90;;;;;;5044348;28;20208;-75
2021/05/31 07:22:37;;;;;;;2.27;2.17;;;13.90;99.90;;;;;;5045369;28;20836;-75
2021/05/31 07:25:04;;;;;;;3.93;2.13;;;14.00;99.90;;;;;;5043934;28;20435;-75
2021/05/31 07:27:30;;;;;;;5.10;2.20;;;14.10;99.90;;;;;;5044543;28;20431;-75
2021/05/31 07:29:56;;;;;;;2.30;2.20;;;14.20;99.90;;;;;;5043845;28;20797;-75
2021/05/31 07:32:22;;;;;;;2.70;2.43;;;14.40;99.90;;;;;;5044442;28;20554;-76
2021/05/31 07:34:47;;;;;;;2.50;2.30;;;14.50;99.90;;;;;;5044507;28;20444;-75
2021/05/31 07:37:13;;;;;;;2.10;1.90;;;14.70;99.90;;;;;;5047111;28;20201;-75
2021/05/31 07:39:38;;;;;;;2.60;2.40;;;14.90;99.90;;;;;;5047942;28;20174;-75
2021/05/31 07:42:05;;;;;;;1.73;1.63;;;15.00;99.90;;;;;;5042803;28;20512;-75
2021/05/31 07:44:31;;;;;;;1.93;1.83;;;15.00;99.90;;;;;;5044855;28;20192;-75
2021/05/31 07:46:57;;;;;;;3.10;1.97;;;15.00;99.90;;;;;;5042869;28;20994;-75
2021/05/31 07:49:23;;;;;;;1.83;1.73;;;15.10;99.90;;;;;;5044905;28;20541;-75
2021/05/31 07:51:51;;;;;;;3.07;2.10;;;15.20;99.90;;;;;;5046438;28;20539;-75
2021/05/31 07:54:18;;;;;;;1.63;1.53;;;15.30;99.90;;;;;;5044899;28;20463;-75
2021/05/31 07:56:43;;;;;;;1.73;1.63;;;15.50;99.90;;;;;;5049979;28;20473;-75
2021/05/31 07:59:09;;;;;;;2.40;1.87;;;15.50;99.90;;;;;;5049803;28;20756;-76
2021/05/31 08:01:35;;;;;;;1.90;1.77;;;15.60;99.90;;;;;;5045451;28;20173;-75
2021/05/31 08:04:05;;;;;;;1.77;1.67;;;15.70;99.90;;;;;;5040039;28;20603;-75
2021/05/31 08:06:32;;;;;;;1.70;1.60;;;15.80;99.90;;;;;;5042282;28;20443;-75
2021/05/31 08:08:58;;;;;;;1.93;1.83;;;16.00;99.90;;;;;;5047138;28;20439;-76
2021/05/31 08:11:23;;;;;;;2.30;1.60;;;16.00;99.90;;;;;;5048141;28;20489;-75
2021/05/31 08:13:49;;;;;;;2.60;1.43;;;16.10;99.90;;;;;;5046815;28;20177;-76
2021/05/31 08:16:18;;;;;;;1.80;1.70;;;16.10;99.90;;;;;;5050083;28;20427;-76
2021/05/31 08:18:44;;;;;;;2.03;1.80;;;16.10;99.90;;;;;;5050314;28;20198;-76
2021/05/31 08:21:10;;;;;;;1.73;1.63;;;16.20;99.90;;;;;;5050793;28;20513;-76
2021/05/31 08:23:36;;;;;;;1.70;1.60;;;16.30;99.90;;;;;;5051105;28;20419;-76
2021/05/31 08:26:02;;;;;;;1.60;1.50;;;16.50;99.90;;;;;;5044697;28;20423;-75
2021/05/31 08:28:28;;;;;;;4.17;1.40;;;16.60;99.90;;;;;;5047228;28;20181;-75
2021/05/31 08:30:54;;;;;;;1.80;1.70;;;16.70;99.90;;;;;;5047617;28;21132;-76
2021/05/31 08:33:20;;;;;;;7.50;2.63;;;16.80;99.90;;;;;;5048746;28;20454;-76
2021/05/31 08:35:46;;;;;;;2.30;1.83;;;16.90;99.90;;;;;;5049008;28;20184;-76
2021/05/31 08:38:12;;;;;;;1.77;1.67;;;16.90;99.90;;;;;;5064393;28;20281;-75
2021/05/31 08:40:39;;;;;;;3.47;1.90;;;17.00;99.90;;;;;;5046431;28;20432;-75
2021/05/31 08:43:05;;;;;;;1.63;1.53;;;17.10;99.90;;;;;;5048328;28;20668;-76
2021/05/31 08:45:32;;;;;;;2.27;2.07;;;17.20;99.90;;;;;;5048769;28;20467;-76
2021/05/31 08:47:58;;;;;;;2.00;1.90;;;17.30;99.90;;;;;;5041157;28;21029;-76
2021/05/31 08:50:29;;;;;;;1.90;1.80;;;17.40;99.90;;;;;;5049398;28;20908;-76
2021/05/31 08:52:55;;;;;;;2.07;1.97;;;17.50;99.90;;;;;;5045445;28;20431;-76
2021/05/31 08:55:24;;;;;;;1.43;1.37;;;17.60;99.90;;;;;;5046618;28;20429;-76
2021/05/31 08:57:51;;;;;;;2.57;2.37;;;17.80;99.90;;;;;;5044039;28;20215;-76
2021/05/31 09:00:20;;;;;;;1.83;1.57;;;17.90;99.40;;;;;;5047155;28;20758;-75
2021/05/31 09:02:47;;;;;;;2.27;2.07;;;18.00;99.90;;;;;;5044724;28;20567;-76
2021/05/31 09:05:13;;;;;;;1.90;1.80;;;18.00;99.90;;;;;;5046612;28;20572;-75
2021/05/31 09:07:38;;;;;;;2.40;2.20;;;18.10;99.20;;;;;;5043628;28;20427;-76
2021/05/31 09:10:07;;;;;;;2.60;2.40;;;18.00;98.10;;;;;;5047444;28;20261;-76
2021/05/31 09:12:37;;;;;;;1.87;1.57;;;18.00;98.90;;;;;;5046416;28;20256;-75
2021/05/31 09:15:11;;;;;;;2.30;1.73;;;18.10;99.70;;;;;;5043974;28;20434;-76
2021/05/31 09:17:39;;;;;;;1.90;1.80;;;18.20;99.90;;;;;;5045754;28;20538;-76
2021/05/31 09:20:06;;;;;;;2.40;2.30;;;18.30;99.90;;;;;;5046799;28;20907;-76
2021/05/31 09:22:44;;;;;;;4.33;2.30;;;18.40;99.90;;;;;;5046634;28;20423;-76
2021/05/31 09:25:10;;;;;;;2.13;2.03;;;18.60;99.90;;;;;;5048105;28;20451;-76
2021/05/31 09:27:36;;;;;;;2.37;2.27;;;18.70;99.90;;;;;;5046200;28;20435;-76
2021/05/31 09:30:07;;;;;;;6.17;1.87;;;18.80;99.90;;;;;;5051437;28;20750;-75
2021/05/31 09:32:33;;;;;;;2.23;2.10;;;19.00;99.90;;;;;;5045313;28;20177;-75
2021/05/31 09:35:07;;;;;;;2.23;2.13;;;19.20;99.90;;;;;;5047996;28;20459;-75
2021/05/31 09:37:42;;;;;;;3.20;2.20;;;19.40;99.90;;;;;;5047243;28;20523;-76
2021/05/31 09:40:08;;;;;;;2.57;2.37;;;19.40;99.90;;;;;;5046555;28;20779;-76
2021/05/31 09:42:34;;;;;;;3.10;2.40;;;19.40;99.90;;;;;;5045407;28;20508;-76
2021/05/31 09:45:07;;;;;;;2.73;2.03;;;19.50;99.90;;;;;;5046180;28;20431;-76
2021/05/31 09:47:34;;;;;;;2.20;2.00;;;19.60;99.90;;;;;;5043665;28;20645;-76
2021/05/31 09:50:01;;;;;;;2.57;2.40;;;19.70;99.90;;;;;;5049144;28;20443;-76
2021/05/31 09:52:27;;;;;;;2.10;2.00;;;19.90;99.90;;;;;;5045561;28;20443;-75
2021/05/31 09:54:54;;;;;;;4.80;2.60;;;19.90;99.90;;;;;;5047500;28;20463;-76
2021/05/31 09:57:28;;;;;;;2.33;2.10;;;20.10;99.90;;;;;;5045772;28;20456;-76
2021/05/31 10:00:13;;;;;;;4.17;2.33;;;20.30;99.90;;;;;;5047884;28;20429;-76
2021/05/31 10:05:38;;;;;;;3.20;2.07;;;20.60;99.70;;;;;;5043206;28;20432;-76
2021/05/31 10:10:35;;;;;;;2.73;2.60;;;20.60;99.90;;;;;;5039543;28;20459;-75
2021/05/31 10:13:02;;;;;;;2.37;2.17;;;20.80;99.90;;;;;;5046108;28;20459;-76
2021/05/31 10:15:39;;;;;;;2.20;2.10;;;21.00;99.90;;;;;;5047956;28;20818;-76
2021/05/31 10:18:07;;;;;;;2.90;2.70;;;21.10;99.90;;;;;;5040922;28;20490;-75
2021/05/31 10:20:34;;;;;;;2.27;2.13;;;21.10;99.70;;;;;;5043860;28;20932;-76
2021/05/31 10:23:00;;;;;;;2.60;2.50;;;21.00;99.70;;;;;;5041124;28;20435;-76
2021/05/31 10:25:27;;;;;;;2.30;2.20;;;21.00;99.90;;;;;;5045488;28;20420;-76
2021/05/31 10:28:14;;;;;;;2.77;2.57;;;21.00;99.90;;;;;;5048820;28;20177;-76
2021/05/31 10:30:49;;;;;;;2.73;2.53;;;21.20;99.90;;;;;;5046188;28;20435;-76
2021/05/31 10:33:23;;;;;;;3.43;2.53;;;21.20;99.90;;;;;;5040863;28;20431;-76
2021/05/31 10:35:50;;;;;;;2.30;2.20;;;21.20;99.80;;;;;;5045377;28;20490;-76
2021/05/31 10:38:19;;;;;;;2.83;2.63;;;21.30;99.90;;;;;;5046168;28;20456;-75
2021/05/31 10:40:47;;;;;;;2.90;2.80;;;21.50;99.90;;;;;;5046328;28;20424;-77
2021/05/31 10:43:19;;;;;;;2.30;2.20;;;21.50;99.90;;;;;;5048921;28;20475;-79
2021/05/31 10:45:45;;;;;;;4.20;3.07;;;21.60;99.90;;;;;;5049151;28;20486;-78
2021/05/31 10:48:13;;;;;;;3.20;2.90;;;21.80;99.90;;;;;;5046569;28;20427;-77
2021/05/31 10:50:54;;;;;;;2.97;2.77;;;21.80;99.90;;;;;;5048264;28;20510;-77
2021/05/31 10:53:31;;;;;;;2.53;2.43;;;22.00;99.90;;;;;;5047136;28;20427;-77
2021/05/31 10:56:03;;;;;;;5.40;2.47;;;22.20;98.80;;;;;;5044038;28;20788;-77
2021/05/31 10:58:53;;;;;;;2.43;2.33;;;22.40;99.60;;;;;;5049397;28;20491;-77
2021/05/31 11:01:20;;;;;;;2.60;2.50;;;22.30;98.80;;;;;;5037925;28;20432;-79
2021/05/31 11:04:03;;;;;;;2.60;2.40;;;22.40;99.60;;;;;;5044902;28;20477;-77
2021/05/31 11:06:30;;;;;;;2.30;2.20;;;22.30;99.90;;;;;;5044192;28;20511;-77
2021/05/31 11:09:19;;;;;;;2.30;2.20;;;22.40;99.10;;;;;;5047996;28;20705;-77
2021/05/31 11:11:48;;;;;;;2.47;2.27;;;22.40;99.60;;;;;;5049510;28;20971;-77
2021/05/31 11:14:30;;;;;;;3.17;2.90;;;22.50;98.00;;;;;;5049497;28;20434;-77
2021/05/31 11:17:01;;;;;;;2.83;2.33;;;22.70;99.90;;;;;;5050250;28;20462;-77
2021/05/31 11:19:37;;;;;;;12.23;4.43;;;22.90;99.60;;;;;;5052155;28;20408;-78
2021/05/31 11:22:19;;;;;;;3.53;2.53;;;23.10;99.90;;;;;;5045299;28;20418;-77
2021/05/31 11:25:09;;;;;;;5.27;3.60;;;22.90;98.20;;;;;;5052375;28;20865;-78
2021/05/31 11:27:38;;;;;;;2.97;2.77;;;22.90;99.00;;;;;;5042571;28;20434;-75
2021/05/31 11:30:07;;;;;;;2.57;2.47;;;22.90;99.20;;;;;;5047101;28;20436;-75
2021/05/31 11:32:33;;;;;;;2.20;2.10;;;23.10;97.90;;;;;;5048784;28;20834;-76
2021/05/31 11:35:02;;;;;;;3.30;2.53;;;23.10;97.00;;;;;;5052446;28;20486;-75
2021/05/31 11:37:30;;;;;;;5.40;3.37;;;23.30;99.30;;;;;;5053045;28;20197;-76
2021/05/31 11:39:57;;;;;;;3.10;2.60;;;23.50;98.90;;;;;;5047365;28;20436;-75
2021/05/31 11:42:23;;;;;;;2.23;2.13;;;23.60;96.20;;;;;;5047725;28;20448;-76
2021/05/31 11:44:50;;;;;;;4.73;2.30;;;23.70;96.80;;;;;;5044742;28;20439;-75
2021/05/31 11:47:20;;;;;;;3.23;2.50;;;23.50;96.90;;;;;;5046450;28;20940;-76
2021/05/31 11:49:46;;;;;;;4.60;2.63;;;23.60;97.30;;;;;;5047805;28;20856;-78
2021/05/31 11:52:12;;;;;;;2.43;2.10;;;23.80;99.60;;;;;;5046574;28;20435;-75
2021/05/31 11:54:39;;;;;;;2.57;2.47;;;23.90;97.20;;;;;;5050467;28;20657;-75
2021/05/31 11:57:20;;;;;;;3.00;2.73;;;24.00;96.80;;;;;;5052394;28;20853;-77
2021/05/31 11:59:51;;;;;;;2.47;2.37;;;24.10;96.90;;;;;;5052141;28;20431;-76
2021/05/31 12:02:18;;;;;;;3.53;2.33;;;23.80;94.70;;;;;;5053966;28;20420;-76
2021/05/31 12:04:49;;;;;;;2.73;2.63;;;23.80;97.00;;;;;;5045619;28;20432;-77
2021/05/31 12:07:22;;;;;;;3.73;2.27;;;24.00;95.80;;;;;;5051112;28;20482;-77
2021/05/31 12:09:48;;;;;;;2.80;2.30;;;23.80;97.40;;;;;;5051031;28;20511;-77
2021/05/31 12:12:19;;;;;;;2.80;2.50;;;23.80;94.80;;;;;;5049911;28;20950;-77
2021/05/31 12:14:46;;;;;;;3.20;2.43;;;23.90;98.20;;;;;;5049335;28;20428;-77
2021/05/31 12:17:13;;;;;;;2.80;2.60;;;23.90;94.20;;;;;;5049395;28;20999;-76
2021/05/31 12:19:40;;;;;;;2.93;2.47;;;24.00;95.20;;;;;;5041950;28;20505;-76
2021/05/31 12:22:07;;;;;;;2.50;2.30;;;24.10;97.20;;;;;;5053329;28;20482;-77
2021/05/31 12:24:35;;;;;;;2.23;2.13;;;24.50;96.50;;;;;;5049880;28;20469;-77
2021/05/31 12:27:02;;;;;;;2.73;2.57;;;24.60;95.20;;;;;;5051385;28;20744;-78
2021/05/31 12:29:40;;;;;;;2.60;2.40;;;24.20;96.80;;;;;;5058108;28;20903;-77
2021/05/31 12:32:10;;;;;;;2.97;2.77;;;24.10;93.60;;;;;;5055468;28;20427;-77
2021/05/31 12:34:36;;;;;;;2.47;2.27;;;24.20;95.30;;;;;;5054770;28;20423;-77
2021/05/31 12:37:04;;;;;;;3.50;2.30;;;24.20;95.40;;;;;;5058590;28;20505;-77
2021/05/31 12:39:30;;;;;;;2.50;2.40;;;24.20;96.20;;;;;;5055364;28;20446;-77
2021/05/31 12:42:01;;;;;;;3.23;2.50;;;24.20;93.10;;;;;;5059020;28;20799;-78
2021/05/31 12:44:27;;;;;;;2.60;2.43;;;24.30;96.30;;;;;;5056332;28;20469;-77
2021/05/31 12:46:53;;;;;;;2.90;2.70;;;24.40;94.10;;;;;;5050267;28;20428;-78
2021/05/31 12:49:26;;;;;;;2.60;2.40;;;24.80;94.10;;;;;;5049439;28;20836;-76
2021/05/31 12:51:57;;;;;;;3.20;3.00;;;25.10;93.60;;;;;;5045361;28;20165;-77
2021/05/31 12:54:23;;;;;;;4.00;2.90;;;25.40;92.80;;;;;;5047466;28;20454;-76
2021/05/31 12:56:51;;;;;;;5.47;2.93;;;25.50;93.50;;;;;;5052266;28;20424;-77
2021/05/31 12:59:24;;;;;;;3.07;2.83;;;25.70;94.50;;;;;;5052774;28;20424;-78
2021/05/31 13:01:50;;;;;;;2.70;2.50;;;25.90;93.50;;;;;;5045174;28;20841;-76
2021/05/31 13:04:24;;;;;;;4.00;2.53;;;26.00;94.30;;;;;;5048256;28;20428;-75
2021/05/31 13:06:50;;;;;;;2.83;2.53;;;26.00;93.10;;;;;;5049524;28;20175;-76
2021/05/31 13:09:25;;;;;;;3.20;2.63;;;26.10;93.30;;;;;;5050511;28;20424;-76
2021/05/31 13:11:52;;;;;;;2.97;2.47;;;26.20;93.10;;;;;;5050951;28;20187;-76
2021/05/31 13:14:25;;;;;;;3.13;2.70;;;26.30;91.60;;;;;;5055870;28;20408;-77